sensor_id;sensor_type;location;lat;lon;timestamp;temperature;humidity
18103;DHT22;9178;51.120;6.192;2023-12-20T00:00:35;7.80;99.90
18103;DHT22;9178;51.120;6.192;2023-12-20T00:03:05;7.70;99.90
18103;DHT22;9178;51.120;6.192;2023-12-20T00:05:39;7.70;99.90
18103;DHT22;9178;51.120;6.192;2023-12-20T00:08:11;7.70;99.90
18103;DHT22;9178;51.120;6.192;2023-12-20T00:10:51;7.60;99.90
18103;DHT22;9178;51.120;6.192;2023-12-20T00:13:18;7.60;99.90
18103;DHT22;9178;51.120;6.192;2023-12-20T00:15:54;7.60;99.90
18103;DHT22;9178;51.120;6.192;2023-12-20T00:18:21;7.60;99.90
18103;DHT22;9178;51.120;6.192;2023-12-20T00:20:48;7.60;99.90
18103;DHT22;9178;51.120;6.192;2023-12-20T00:23:16;7.60;99.90
18103;DHT22;9178;51.120;6.192;2023-12-20T00:25:46;7.60;99.90
18103;DHT22;9178;51.120;6.192;2023-12-20T00:28:18;7.50;99.90
18103;DHT22;9178;51.120;6.192;2023-12-20T00:30:50;7.50;99.90
18103;DHT22;9178;51.120;6.192;2023-12-20T00:33:17;7.50;99.90
18103;DHT22;9178;51.120;6.192;2023-12-20T00:35:44;7.60;99.90
18103;DHT22;9178;51.120;6.192;2023-12-20T00:38:15;7.50;99.90
18103;DHT22;9178;51.120;6.192;2023-12-20T00:40:42;7.50;99.90
18103;DHT22;9178;51.120;6.192;2023-12-20T00:43:09;7.50;99.90
18103;DHT22;9178;51.120;6.192;2023-12-20T00:45:44;7.50;99.90
18103;DHT22;9178;51.120;6.192;2023-12-20T00:48:14;7.40;99.90
18103;DHT22;9178;51.120;6.192;2023-12-20T00:50:41;7.40;99.90
18103;DHT22;9178;51.120;6.192;2023-12-20T00:53:13;7.30;99.90
18103;DHT22;9178;51.120;6.192;2023-12-20T00:55:40;7.30;99.90
18103;DHT22;9178;51.120;6.192;2023-12-20T00:58:10;7.20;99.90
18103;DHT22;9178;51.120;6.192;2023-12-20T01:00:44;7.10;99.90
18103;DHT22;9178;51.120;6.192;2023-12-20T01:03:35;7.00;99.90
18103;DHT22;9178;51.120;6.192;2023-12-20T01:06:02;7.00;99.90
18103;DHT22;9178;51.120;6.192;2023-12-20T01:08:32;6.90;99.90
18103;DHT22;9178;51.120;6.192;2023-12-20T01:11:00;6.80;99.90
18103;DHT22;9178;51.120;6.192;2023-12-20T01:13:27;6.80;99.90
18103;DHT22;9178;51.120;6.192;2023-12-20T01:15:56;6.70;99.90
18103;DHT22;9178;51.120;6.192;2023-12-20T01:18:23;6.70;99.90
18103;DHT22;9178;51.120;6.192;2023-12-20T01:20:50;6.70;99.90
18103;DHT22;9178;51.120;6.192;2023-12-20T01:23:17;6.70;99.90
18103;DHT22;9178;51.120;6.192;2023-12-20T01:25:44;6.70;99.90
18103;DHT22;9178;51.120;6.192;2023-12-20T01:28:20;6.60;99.90
18103;DHT22;9178;51.120;6.192;2023-12-20T01:30:48;6.60;99.90
18103;DHT22;9178;51.120;6.192;2023-12-20T01:33:16;6.50;99.90
18103;DHT22;9178;51.120;6.192;2023-12-20T01:35:48;6.40;99.90
18103;DHT22;9178;51.120;6.192;2023-12-20T01:38:15;6.40;99.90
18103;DHT22;9178;51.120;6.192;2023-12-20T01:40:50;6.30;99.90
18103;DHT22;9178;51.120;6.192;2023-12-20T01:43:20;6.20;99.90
18103;DHT22;9178;51.120;6.192;2023-12-20T01:45:49;6.20;99.90
18103;DHT22;9178;51.120;6.192;2023-12-20T01:48:18;6.20;99.90
18103;DHT22;9178;51.120;6.192;2023-12-20T01:50:46;6.10;99.90
18103;DHT22;9178;51.120;6.192;2023-12-20T01:53:21;6.00;99.90
18103;DHT22;9178;51.120;6.192;2023-12-20T01:55:50;5.90;99.90
18103;DHT22;9178;51.120;6.192;2023-12-20T01:58:22;5.90;99.90
18103;DHT22;9178;51.120;6.192;2023-12-20T02:00:50;5.90;99.90
18103;DHT22;9178;51.120;6.192;2023-12-20T02:03:19;5.90;99.90
18103;DHT22;9178;51.120;6.192;2023-12-20T02:05:47;5.90;99.90
18103;DHT22;9178;51.120;6.192;2023-12-20T02:08:15;5.80;99.90
18103;DHT22;9178;51.120;6.192;2023-12-20T02:10:42;5.80;99.90
18103;DHT22;9178;51.120;6.192;2023-12-20T02:13:09;5.80;99.90
18103;DHT22;9178;51.120;6.192;2023-12-20T02:15:36;5.70;99.90
18103;DHT22;9178;51.120;6.192;2023-12-20T02:18:04;5.70;99.90
18103;DHT22;9178;51.120;6.192;2023-12-20T02:20:32;5.70;99.90
18103;DHT22;9178;51.120;6.192;2023-12-20T02:23:01;5.70;99.90
18103;DHT22;9178;51.120;6.192;2023-12-20T02:25:33;5.70;99.90
18103;DHT22;9178;51.120;6.192;2023-12-20T02:28:01;5.70;99.90
18103;DHT22;9178;51.120;6.192;2023-12-20T02:30:28;5.70;99.90
18103;DHT22;9178;51.120;6.192;2023-12-20T02:32:56;5.70;99.90
18103;DHT22;9178;51.120;6.192;2023-12-20T02:35:31;5.70;99.90
18103;DHT22;9178;51.120;6.192;2023-12-20T02:37:59;5.70;99.90
18103;DHT22;9178;51.120;6.192;2023-12-20T02:40:30;5.80;99.90
18103;DHT22;9178;51.120;6.192;2023-12-20T02:42:57;5.80;99.90
18103;DHT22;9178;51.120;6.192;2023-12-20T02:45:27;5.80;99.90
18103;DHT22;9178;51.120;6.192;2023-12-20T02:47:54;5.70;99.90
18103;DHT22;9178;51.120;6.192;2023-12-20T02:50:22;5.70;99.90
18103;DHT22;9178;51.120;6.192;2023-12-20T02:52:49;5.70;99.90
18103;DHT22;9178;51.120;6.192;2023-12-20T02:55:20;5.60;99.90
18103;DHT22;9178;51.120;6.192;2023-12-20T02:57:56;5.60;99.90
18103;DHT22;9178;51.120;6.192;2023-12-20T03:00:26;5.60;99.90
18103;DHT22;9178;51.120;6.192;2023-12-20T03:02:53;5.60;99.90
18103;DHT22;9178;51.120;6.192;2023-12-20T03:05:20;5.60;99.90
18103;DHT22;9178;51.120;6.192;2023-12-20T03:07:49;5.60;99.90
18103;DHT22;9178;51.120;6.192;2023-12-20T03:10:19;5.60;99.90
18103;DHT22;9178;51.120;6.192;2023-12-20T03:12:46;5.60;99.90
18103;DHT22;9178;51.120;6.192;2023-12-20T03:15:13;5.60;99.90
18103;DHT22;9178;51.120;6.192;2023-12-20T03:17:40;5.60;99.90
18103;DHT22;9178;51.120;6.192;2023-12-20T03:20:09;5.60;99.90
18103;DHT22;9178;51.120;6.192;2023-12-20T03:22:43;5.60;99.90
18103;DHT22;9178;51.120;6.192;2023-12-20T03:25:11;5.60;99.90
18103;DHT22;9178;51.120;6.192;2023-12-20T03:27:39;5.60;99.90
18103;DHT22;9178;51.120;6.192;2023-12-20T03:30:07;5.50;99.90
18103;DHT22;9178;51.120;6.192;2023-12-20T03:32:47;5.50;99.90
18103;DHT22;9178;51.120;6.192;2023-12-20T03:35:14;5.50;99.90
18103;DHT22;9178;51.120;6.192;2023-12-20T03:37:41;5.40;99.90
18103;DHT22;9178;51.120;6.192;2023-12-20T03:40:09;5.40;99.90
18103;DHT22;9178;51.120;6.192;2023-12-20T03:42:37;5.40;99.90
18103;DHT22;9178;51.120;6.192;2023-12-20T03:45:06;5.30;99.90
18103;DHT22;9178;51.120;6.192;2023-12-20T03:47:36;5.30;99.90
18103;DHT22;9178;51.120;6.192;2023-12-20T03:50:06;5.40;99.90
18103;DHT22;9178;51.120;6.192;2023-12-20T03:52:44;5.40;99.90
18103;DHT22;9178;51.120;6.192;2023-12-20T03:55:11;5.40;99.90
18103;DHT22;9178;51.120;6.192;2023-12-20T03:57:38;5.40;99.90
18103;DHT22;9178;51.120;6.192;2023-12-20T04:00:09;5.40;99.90
18103;DHT22;9178;51.120;6.192;2023-12-20T04:02:40;5.30;99.90
18103;DHT22;9178;51.120;6.192;2023-12-20T04:05:08;5.30;99.90
18103;DHT22;9178;51.120;6.192;2023-12-20T04:07:35;5.20;99.90
18103;DHT22;9178;51.120;6.192;2023-12-20T04:10:03;5.20;99.90
18103;DHT22;9178;51.120;6.192;2023-12-20T04:12:30;5.10;99.90
18103;DHT22;9178;51.120;6.192;2023-12-20T04:14:58;5.10;99.90
18103;DHT22;9178;51.120;6.192;2023-12-20T04:17:26;5.10;99.90
18103;DHT22;9178;51.120;6.192;2023-12-20T04:19:53;5.10;99.90
18103;DHT22;9178;51.120;6.192;2023-12-20T04:22:20;5.20;99.90
18103;DHT22;9178;51.120;6.192;2023-12-20T04:24:47;5.10;99.90
18103;DHT22;9178;51.120;6.192;2023-12-20T04:27:14;5.10;99.90
18103;DHT22;9178;51.120;6.192;2023-12-20T04:29:41;5.10;99.90
18103;DHT22;9178;51.120;6.192;2023-12-20T04:32:11;5.10;99.90
18103;DHT22;9178;51.120;6.192;2023-12-20T04:34:39;5.10;99.90
18103;DHT22;9178;51.120;6.192;2023-12-20T04:37:06;5.10;99.90
18103;DHT22;9178;51.120;6.192;2023-12-20T04:39:33;5.20;99.90
18103;DHT22;9178;51.120;6.192;2023-12-20T04:42:01;5.20;99.90
18103;DHT22;9178;51.120;6.192;2023-12-20T04:44:31;5.20;99.90
18103;DHT22;9178;51.120;6.192;2023-12-20T04:46:58;5.20;99.90
18103;DHT22;9178;51.120;6.192;2023-12-20T04:49:34;5.20;99.90
18103;DHT22;9178;51.120;6.192;2023-12-20T04:52:03;5.20;99.90
18103;DHT22;9178;51.120;6.192;2023-12-20T04:54:31;5.20;99.90
18103;DHT22;9178;51.120;6.192;2023-12-20T04:56:58;5.30;99.90
18103;DHT22;9178;51.120;6.192;2023-12-20T04:59:28;5.30;99.90
18103;DHT22;9178;51.120;6.192;2023-12-20T05:01:57;5.30;99.90
18103;DHT22;9178;51.120;6.192;2023-12-20T05:04:24;5.30;99.90
18103;DHT22;9178;51.120;6.192;2023-12-20T05:06:51;5.30;99.90
18103;DHT22;9178;51.120;6.192;2023-12-20T05:09:20;5.30;99.90
18103;DHT22;9178;51.120;6.192;2023-12-20T05:11:47;5.30;99.90
18103;DHT22;9178;51.120;6.192;2023-12-20T05:14:14;5.40;99.90
18103;DHT22;9178;51.120;6.192;2023-12-20T05:16:42;5.40;99.90
18103;DHT22;9178;51.120;6.192;2023-12-20T05:19:09;5.40;99.90
18103;DHT22;9178;51.120;6.192;2023-12-20T05:21:36;5.40;99.90
18103;DHT22;9178;51.120;6.192;2023-12-20T05:24:07;5.40;99.90
18103;DHT22;9178;51.120;6.192;2023-12-20T05:26:35;5.40;99.90
18103;DHT22;9178;51.120;6.192;2023-12-20T05:29:04;5.40;99.90
18103;DHT22;9178;51.120;6.192;2023-12-20T05:31:31;5.40;99.90
18103;DHT22;9178;51.120;6.192;2023-12-20T05:33:58;5.50;99.90
18103;DHT22;9178;51.120;6.192;2023-12-20T05:36:26;5.50;99.90
18103;DHT22;9178;51.120;6.192;2023-12-20T05:38:54;5.50;99.90
18103;DHT22;9178;51.120;6.192;2023-12-20T05:41:21;5.50;99.90
18103;DHT22;9178;51.120;6.192;2023-12-20T05:43:50;5.50;99.90
18103;DHT22;9178;51.120;6.192;2023-12-20T05:46:20;5.50;99.90
18103;DHT22;9178;51.120;6.192;2023-12-20T05:48:50;5.50;99.90
18103;DHT22;9178;51.120;6.192;2023-12-20T05:51:18;5.60;99.90
18103;DHT22;9178;51.120;6.192;2023-12-20T05:53:45;5.60;99.90
18103;DHT22;9178;51.120;6.192;2023-12-20T05:56:12;5.60;99.90
18103;DHT22;9178;51.120;6.192;2023-12-20T05:58:41;5.60;99.90
18103;DHT22;9178;51.120;6.192;2023-12-20T06:01:10;5.60;99.90
18103;DHT22;9178;51.120;6.192;2023-12-20T06:03:41;5.60;99.90
18103;DHT22;9178;51.120;6.192;2023-12-20T06:06:09;5.60;99.90
18103;DHT22;9178;51.120;6.192;2023-12-20T06:08:36;5.60;99.90
18103;DHT22;9178;51.120;6.192;2023-12-20T06:11:04;5.70;99.90
18103;DHT22;9178;51.120;6.192;2023-12-20T06:13:31;5.70;99.90
18103;DHT22;9178;51.120;6.192;2023-12-20T06:15:58;5.70;99.90
18103;DHT22;9178;51.120;6.192;2023-12-20T06:18:26;5.70;99.90
18103;DHT22;9178;51.120;6.192;2023-12-20T06:20:53;5.70;99.90
18103;DHT22;9178;51.120;6.192;2023-12-20T06:23:20;5.70;99.90
18103;DHT22;9178;51.120;6.192;2023-12-20T06:25:47;5.70;99.90
18103;DHT22;9178;51.120;6.192;2023-12-20T06:28:14;5.70;99.90
18103;DHT22;9178;51.120;6.192;2023-12-20T06:30:41;5.70;99.90
18103;DHT22;9178;51.120;6.192;2023-12-20T06:33:08;5.70;99.90
18103;DHT22;9178;51.120;6.192;2023-12-20T06:35:41;5.70;99.90
18103;DHT22;9178;51.120;6.192;2023-12-20T06:38:09;5.70;99.90
18103;DHT22;9178;51.120;6.192;2023-12-20T06:40:36;5.70;99.90
18103;DHT22;9178;51.120;6.192;2023-12-20T06:43:03;5.70;99.90
18103;DHT22;9178;51.120;6.192;2023-12-20T06:45:32;5.80;99.90
18103;DHT22;9178;51.120;6.192;2023-12-20T06:48:00;5.80;99.90
18103;DHT22;9178;51.120;6.192;2023-12-20T06:50:28;5.70;99.90
18103;DHT22;9178;51.120;6.192;2023-12-20T06:52:56;5.80;99.90
18103;DHT22;9178;51.120;6.192;2023-12-20T06:55:24;5.80;99.90
18103;DHT22;9178;51.120;6.192;2023-12-20T06:57:51;5.80;99.90
18103;DHT22;9178;51.120;6.192;2023-12-20T07:00:21;5.80;99.90
18103;DHT22;9178;51.120;6.192;2023-12-20T07:02:48;5.80;99.90
18103;DHT22;9178;51.120;6.192;2023-12-20T07:05:17;5.80;99.90
18103;DHT22;9178;51.120;6.192;2023-12-20T07:07:45;5.80;99.90
18103;DHT22;9178;51.120;6.192;2023-12-20T07:10:14;5.80;99.90
18103;DHT22;9178;51.120;6.192;2023-12-20T07:12:42;5.70;99.90
18103;DHT22;9178;51.120;6.192;2023-12-20T07:15:10;5.70;99.90
18103;DHT22;9178;51.120;6.192;2023-12-20T07:17:37;5.70;99.90
18103;DHT22;9178;51.120;6.192;2023-12-20T07:20:08;5.70;99.90
18103;DHT22;9178;51.120;6.192;2023-12-20T07:22:36;5.70;99.90
18103;DHT22;9178;51.120;6.192;2023-12-20T07:25:04;5.70;99.90
18103;DHT22;9178;51.120;6.192;2023-12-20T07:27:33;5.60;99.90
18103;DHT22;9178;51.120;6.192;2023-12-20T07:30:00;5.60;99.90
18103;DHT22;9178;51.120;6.192;2023-12-20T07:32:27;5.60;99.90
18103;DHT22;9178;51.120;6.192;2023-12-20T07:34:58;5.50;99.90
18103;DHT22;9178;51.120;6.192;2023-12-20T07:37:25;5.50;99.90
18103;DHT22;9178;51.120;6.192;2023-12-20T07:39:52;5.40;99.90
18103;DHT22;9178;51.120;6.192;2023-12-20T07:42:25;5.40;99.90
18103;DHT22;9178;51.120;6.192;2023-12-20T07:44:54;5.40;99.90
18103;DHT22;9178;51.120;6.192;2023-12-20T07:47:21;5.30;99.90
18103;DHT22;9178;51.120;6.192;2023-12-20T07:49:48;5.30;99.90
18103;DHT22;9178;51.120;6.192;2023-12-20T07:52:17;5.20;99.90
18103;DHT22;9178;51.120;6.192;2023-12-20T07:54:45;5.20;99.90
18103;DHT22;9178;51.120;6.192;2023-12-20T07:57:12;5.20;99.90
18103;DHT22;9178;51.120;6.192;2023-12-20T07:59:39;5.20;99.90
18103;DHT22;9178;51.120;6.192;2023-12-20T08:02:08;5.20;99.90
18103;DHT22;9178;51.120;6.192;2023-12-20T08:04:35;5.20;99.90
18103;DHT22;9178;51.120;6.192;2023-12-20T08:07:03;5.30;99.90
18103;DHT22;9178;51.120;6.192;2023-12-20T08:09:30;5.30;99.90
18103;DHT22;9178;51.120;6.192;2023-12-20T08:11:59;5.30;99.90
18103;DHT22;9178;51.120;6.192;2023-12-20T08:14:26;5.30;99.90
18103;DHT22;9178;51.120;6.192;2023-12-20T08:16:54;5.30;99.90
18103;DHT22;9178;51.120;6.192;2023-12-20T08:19:22;5.20;99.90
18103;DHT22;9178;51.120;6.192;2023-12-20T08:21:50;5.30;99.90
18103;DHT22;9178;51.120;6.192;2023-12-20T08:24:20;5.30;99.90
18103;DHT22;9178;51.120;6.192;2023-12-20T08:26:47;5.30;99.90
18103;DHT22;9178;51.120;6.192;2023-12-20T08:29:17;5.30;99.90
18103;DHT22;9178;51.120;6.192;2023-12-20T08:31:45;5.40;99.90
18103;DHT22;9178;51.120;6.192;2023-12-20T08:34:12;5.40;99.90
18103;DHT22;9178;51.120;6.192;2023-12-20T08:36:41;5.50;99.90
18103;DHT22;9178;51.120;6.192;2023-12-20T08:39:08;5.50;99.90
18103;DHT22;9178;51.120;6.192;2023-12-20T08:41:36;5.60;99.90
18103;DHT22;9178;51.120;6.192;2023-12-20T08:44:03;5.60;99.90
18103;DHT22;9178;51.120;6.192;2023-12-20T08:46:30;5.60;99.90
18103;DHT22;9178;51.120;6.192;2023-12-20T08:48:57;5.60;99.90
18103;DHT22;9178;51.120;6.192;2023-12-20T08:51:26;5.60;99.90
18103;DHT22;9178;51.120;6.192;2023-12-20T08:53:54;5.60;99.90
18103;DHT22;9178;51.120;6.192;2023-12-20T08:56:21;5.70;99.90
18103;DHT22;9178;51.120;6.192;2023-12-20T08:58:48;5.70;99.90
18103;DHT22;9178;51.120;6.192;2023-12-20T09:01:16;5.70;99.90
18103;DHT22;9178;51.120;6.192;2023-12-20T09:03:43;5.70;99.90
18103;DHT22;9178;51.120;6.192;2023-12-20T09:06:09;5.70;99.90
18103;DHT22;9178;51.120;6.192;2023-12-20T09:08:38;5.70;99.90
18103;DHT22;9178;51.120;6.192;2023-12-20T09:11:07;5.80;99.90
18103;DHT22;9178;51.120;6.192;2023-12-20T09:13:34;5.70;99.90
18103;DHT22;9178;51.120;6.192;2023-12-20T09:16:01;5.80;99.90
18103;DHT22;9178;51.120;6.192;2023-12-20T09:18:28;5.80;99.90
18103;DHT22;9178;51.120;6.192;2023-12-20T09:20:57;5.80;99.90
18103;DHT22;9178;51.120;6.192;2023-12-20T09:23:27;5.90;99.90
18103;DHT22;9178;51.120;6.192;2023-12-20T09:25:55;5.90;99.90
18103;DHT22;9178;51.120;6.192;2023-12-20T09:28:26;5.90;99.90
18103;DHT22;9178;51.120;6.192;2023-12-20T09:30:58;5.90;99.90
18103;DHT22;9178;51.120;6.192;2023-12-20T09:33:26;6.00;99.90
18103;DHT22;9178;51.120;6.192;2023-12-20T09:35:53;6.00;99.90
18103;DHT22;9178;51.120;6.192;2023-12-20T09:38:20;6.00;99.90
18103;DHT22;9178;51.120;6.192;2023-12-20T09:40:48;6.10;99.90
18103;DHT22;9178;51.120;6.192;2023-12-20T09:43:18;6.10;99.90
18103;DHT22;9178;51.120;6.192;2023-12-20T09:45:48;6.20;99.90
18103;DHT22;9178;51.120;6.192;2023-12-20T09:48:19;6.20;99.90
18103;DHT22;9178;51.120;6.192;2023-12-20T09:50:47;6.20;99.90
18103;DHT22;9178;51.120;6.192;2023-12-20T09:53:16;6.20;99.90
18103;DHT22;9178;51.120;6.192;2023-12-20T09:55:44;6.20;99.90
18103;DHT22;9178;51.120;6.192;2023-12-20T09:58:12;6.20;99.90
18103;DHT22;9178;51.120;6.192;2023-12-20T10:00:39;6.20;99.90
18103;DHT22;9178;51.120;6.192;2023-12-20T10:03:08;6.20;99.90
18103;DHT22;9178;51.120;6.192;2023-12-20T10:05:36;6.30;99.90
18103;DHT22;9178;51.120;6.192;2023-12-20T10:08:05;6.30;99.90
18103;DHT22;9178;51.120;6.192;2023-12-20T10:10:35;6.30;99.90
18103;DHT22;9178;51.120;6.192;2023-12-20T10:13:03;6.30;99.90
18103;DHT22;9178;51.120;6.192;2023-12-20T10:15:32;6.30;99.90
18103;DHT22;9178;51.120;6.192;2023-12-20T10:17:59;6.30;99.90
18103;DHT22;9178;51.120;6.192;2023-12-20T10:20:31;6.30;99.90
18103;DHT22;9178;51.120;6.192;2023-12-20T10:23:04;6.30;99.90
18103;DHT22;9178;51.120;6.192;2023-12-20T10:25:31;6.30;99.90
18103;DHT22;9178;51.120;6.192;2023-12-20T10:28:13;6.30;99.90
18103;DHT22;9178;51.120;6.192;2023-12-20T10:30:43;6.30;99.90
18103;DHT22;9178;51.120;6.192;2023-12-20T10:33:10;6.40;99.90
18103;DHT22;9178;51.120;6.192;2023-12-20T10:35:39;6.30;99.90
18103;DHT22;9178;51.120;6.192;2023-12-20T10:38:06;6.40;99.90
18103;DHT22;9178;51.120;6.192;2023-12-20T10:40:35;6.40;99.90
18103;DHT22;9178;51.120;6.192;2023-12-20T10:43:04;6.40;99.90
18103;DHT22;9178;51.120;6.192;2023-12-20T10:45:31;6.40;99.90
18103;DHT22;9178;51.120;6.192;2023-12-20T10:48:02;6.40;99.90
18103;DHT22;9178;51.120;6.192;2023-12-20T10:50:32;6.40;99.90
18103;DHT22;9178;51.120;6.192;2023-12-20T10:53:01;6.50;99.90
18103;DHT22;9178;51.120;6.192;2023-12-20T10:55:29;6.50;99.90
18103;DHT22;9178;51.120;6.192;2023-12-20T10:58:00;6.50;99.90
18103;DHT22;9178;51.120;6.192;2023-12-20T11:00:29;6.50;99.90
18103;DHT22;9178;51.120;6.192;2023-12-20T11:03:00;6.50;99.90
18103;DHT22;9178;51.120;6.192;2023-12-20T11:05:36;6.60;99.90
18103;DHT22;9178;51.120;6.192;2023-12-20T11:08:09;6.60;99.90
18103;DHT22;9178;51.120;6.192;2023-12-20T11:10:42;6.60;99.90
18103;DHT22;9178;51.120;6.192;2023-12-20T11:13:17;6.60;99.90
18103;DHT22;9178;51.120;6.192;2023-12-20T11:15:47;6.60;99.90
18103;DHT22;9178;51.120;6.192;2023-12-20T11:18:15;6.60;99.90
18103;DHT22;9178;51.120;6.192;2023-12-20T11:20:42;6.60;99.90
18103;DHT22;9178;51.120;6.192;2023-12-20T11:23:11;6.60;99.90
18103;DHT22;9178;51.120;6.192;2023-12-20T11:25:48;6.60;99.90
18103;DHT22;9178;51.120;6.192;2023-12-20T11:28:15;6.70;99.90
18103;DHT22;9178;51.120;6.192;2023-12-20T11:30:48;6.70;99.90
18103;DHT22;9178;51.120;6.192;2023-12-20T11:33:16;6.70;99.90
18103;DHT22;9178;51.120;6.192;2023-12-20T11:35:45;6.70;99.90
18103;DHT22;9178;51.120;6.192;2023-12-20T11:38:15;6.70;99.90
18103;DHT22;9178;51.120;6.192;2023-12-20T11:40:42;6.70;99.90
18103;DHT22;9178;51.120;6.192;2023-12-20T11:43:30;6.70;99.90
18103;DHT22;9178;51.120;6.192;2023-12-20T11:46:03;6.60;99.90
18103;DHT22;9178;51.120;6.192;2023-12-20T11:48:30;6.70;99.90
18103;DHT22;9178;51.120;6.192;2023-12-20T11:50:58;6.60;99.90
18103;DHT22;9178;51.120;6.192;2023-12-20T11:53:26;6.60;99.90
18103;DHT22;9178;51.120;6.192;2023-12-20T11:55:54;6.70;99.90
18103;DHT22;9178;51.120;6.192;2023-12-20T11:58:21;6.70;99.90
18103;DHT22;9178;51.120;6.192;2023-12-20T12:00:51;6.70;99.90
18103;DHT22;9178;51.120;6.192;2023-12-20T12:03:19;6.70;99.90
18103;DHT22;9178;51.120;6.192;2023-12-20T12:05:53;6.70;99.90
18103;DHT22;9178;51.120;6.192;2023-12-20T12:08:20;6.70;99.90
18103;DHT22;9178;51.120;6.192;2023-12-20T12:10:49;6.70;99.90
18103;DHT22;9178;51.120;6.192;2023-12-20T12:13:16;6.70;99.90
18103;DHT22;9178;51.120;6.192;2023-12-20T12:15:43;6.70;99.90
18103;DHT22;9178;51.120;6.192;2023-12-20T12:18:15;6.70;99.90
18103;DHT22;9178;51.120;6.192;2023-12-20T12:20:43;6.70;99.90
18103;DHT22;9178;51.120;6.192;2023-12-20T12:23:12;6.70;99.90
18103;DHT22;9178;51.120;6.192;2023-12-20T12:25:39;6.70;99.90
18103;DHT22;9178;51.120;6.192;2023-12-20T12:28:08;6.70;99.90
18103;DHT22;9178;51.120;6.192;2023-12-20T12:30:36;6.70;99.90
18103;DHT22;9178;51.120;6.192;2023-12-20T12:33:03;6.70;99.90
18103;DHT22;9178;51.120;6.192;2023-12-20T12:35:35;6.70;99.90
18103;DHT22;9178;51.120;6.192;2023-12-20T12:38:10;6.80;99.90
18103;DHT22;9178;51.120;6.192;2023-12-20T12:40:38;6.80;99.90
18103;DHT22;9178;51.120;6.192;2023-12-20T12:43:05;6.80;99.90
18103;DHT22;9178;51.120;6.192;2023-12-20T12:45:34;6.80;99.90
18103;DHT22;9178;51.120;6.192;2023-12-20T12:48:05;6.80;99.90
18103;DHT22;9178;51.120;6.192;2023-12-20T12:50:32;6.80;99.90
18103;DHT22;9178;51.120;6.192;2023-12-20T12:53:00;6.80;99.90
18103;DHT22;9178;51.120;6.192;2023-12-20T12:55:28;6.90;99.90
18103;DHT22;9178;51.120;6.192;2023-12-20T12:57:56;6.90;99.90
18103;DHT22;9178;51.120;6.192;2023-12-20T13:00:26;6.90;99.90
18103;DHT22;9178;51.120;6.192;2023-12-20T13:02:55;6.90;99.90
18103;DHT22;9178;51.120;6.192;2023-12-20T13:05:22;6.90;99.90
18103;DHT22;9178;51.120;6.192;2023-12-20T13:07:50;6.90;99.90
18103;DHT22;9178;51.120;6.192;2023-12-20T13:10:17;6.90;99.90
18103;DHT22;9178;51.120;6.192;2023-12-20T13:12:44;6.90;99.90
18103;DHT22;9178;51.120;6.192;2023-12-20T13:15:14;6.90;99.90
18103;DHT22;9178;51.120;6.192;2023-12-20T13:17:42;6.80;99.90
18103;DHT22;9178;51.120;6.192;2023-12-20T13:20:11;6.90;99.90
18103;DHT22;9178;51.120;6.192;2023-12-20T13:22:38;6.90;99.90
18103;DHT22;9178;51.120;6.192;2023-12-20T13:25:05;6.90;99.90
18103;DHT22;9178;51.120;6.192;2023-12-20T13:27:33;6.90;99.90
18103;DHT22;9178;51.120;6.192;2023-12-20T13:30:00;6.90;99.90
18103;DHT22;9178;51.120;6.192;2023-12-20T13:32:28;6.90;99.90
18103;DHT22;9178;51.120;6.192;2023-12-20T13:34:58;6.90;99.90
18103;DHT22;9178;51.120;6.192;2023-12-20T13:37:27;6.90;99.90
18103;DHT22;9178;51.120;6.192;2023-12-20T13:39:54;6.90;99.90
18103;DHT22;9178;51.120;6.192;2023-12-20T13:42:21;6.90;99.90
18103;DHT22;9178;51.120;6.192;2023-12-20T13:44:48;6.90;99.90
18103;DHT22;9178;51.120;6.192;2023-12-20T13:47:15;7.00;99.90
18103;DHT22;9178;51.120;6.192;2023-12-20T13:49:42;7.00;99.90
18103;DHT22;9178;51.120;6.192;2023-12-20T13:52:10;7.00;99.90
18103;DHT22;9178;51.120;6.192;2023-12-20T13:54:38;7.10;99.90
18103;DHT22;9178;51.120;6.192;2023-12-20T13:57:05;7.10;99.90
18103;DHT22;9178;51.120;6.192;2023-12-20T13:59:32;7.10;99.90
18103;DHT22;9178;51.120;6.192;2023-12-20T14:02:00;7.10;99.90
18103;DHT22;9178;51.120;6.192;2023-12-20T14:04:29;7.10;99.90
18103;DHT22;9178;51.120;6.192;2023-12-20T14:06:56;7.20;99.90
18103;DHT22;9178;51.120;6.192;2023-12-20T14:09:24;7.10;99.90
18103;DHT22;9178;51.120;6.192;2023-12-20T14:11:52;7.20;99.90
18103;DHT22;9178;51.120;6.192;2023-12-20T14:14:20;7.20;99.90
18103;DHT22;9178;51.120;6.192;2023-12-20T14:16:47;7.20;99.90
18103;DHT22;9178;51.120;6.192;2023-12-20T14:19:14;7.20;99.90
18103;DHT22;9178;51.120;6.192;2023-12-20T14:21:41;7.30;99.90
18103;DHT22;9178;51.120;6.192;2023-12-20T14:24:11;7.30;99.90
18103;DHT22;9178;51.120;6.192;2023-12-20T14:26:40;7.30;99.90
18103;DHT22;9178;51.120;6.192;2023-12-20T14:29:08;7.30;99.90
18103;DHT22;9178;51.120;6.192;2023-12-20T14:31:35;7.30;99.90
18103;DHT22;9178;51.120;6.192;2023-12-20T14:34:06;7.30;99.90
18103;DHT22;9178;51.120;6.192;2023-12-20T14:36:34;7.30;99.90
18103;DHT22;9178;51.120;6.192;2023-12-20T14:39:05;7.30;99.90
18103;DHT22;9178;51.120;6.192;2023-12-20T14:41:37;7.30;99.90
18103;DHT22;9178;51.120;6.192;2023-12-20T14:44:05;7.30;99.90
18103;DHT22;9178;51.120;6.192;2023-12-20T14:46:34;7.30;99.90
18103;DHT22;9178;51.120;6.192;2023-12-20T14:49:01;7.30;99.90
18103;DHT22;9178;51.120;6.192;2023-12-20T14:51:29;7.30;99.90
18103;DHT22;9178;51.120;6.192;2023-12-20T14:53:56;7.30;99.90
18103;DHT22;9178;51.120;6.192;2023-12-20T14:56:23;7.30;99.90
18103;DHT22;9178;51.120;6.192;2023-12-20T14:58:51;7.30;99.90
18103;DHT22;9178;51.120;6.192;2023-12-20T15:01:18;7.30;99.90
18103;DHT22;9178;51.120;6.192;2023-12-20T15:03:48;7.30;99.90
18103;DHT22;9178;51.120;6.192;2023-12-20T15:06:15;7.30;99.90
18103;DHT22;9178;51.120;6.192;2023-12-20T15:08:42;7.30;99.90
18103;DHT22;9178;51.120;6.192;2023-12-20T15:11:09;7.30;99.90
18103;DHT22;9178;51.120;6.192;2023-12-20T15:13:37;7.30;99.90
18103;DHT22;9178;51.120;6.192;2023-12-20T15:16:05;7.30;99.90
18103;DHT22;9178;51.120;6.192;2023-12-20T15:18:32;7.30;99.90
18103;DHT22;9178;51.120;6.192;2023-12-20T15:21:00;7.30;99.90
18103;DHT22;9178;51.120;6.192;2023-12-20T15:23:27;7.30;99.90
18103;DHT22;9178;51.120;6.192;2023-12-20T15:25:56;7.30;99.90
18103;DHT22;9178;51.120;6.192;2023-12-20T15:28:23;7.30;99.90
18103;DHT22;9178;51.120;6.192;2023-12-20T15:30:50;7.30;99.90
18103;DHT22;9178;51.120;6.192;2023-12-20T15:33:19;7.30;99.90
18103;DHT22;9178;51.120;6.192;2023-12-20T15:35:46;7.30;99.90
18103;DHT22;9178;51.120;6.192;2023-12-20T15:38:14;7.30;99.90
18103;DHT22;9178;51.120;6.192;2023-12-20T15:40:42;7.30;99.90
18103;DHT22;9178;51.120;6.192;2023-12-20T15:43:09;7.30;99.90
18103;DHT22;9178;51.120;6.192;2023-12-20T15:45:37;7.30;99.90
18103;DHT22;9178;51.120;6.192;2023-12-20T15:48:05;7.30;99.90
18103;DHT22;9178;51.120;6.192;2023-12-20T15:50:32;7.30;99.90
18103;DHT22;9178;51.120;6.192;2023-12-20T15:53:03;7.20;99.90
18103;DHT22;9178;51.120;6.192;2023-12-20T15:55:31;7.20;99.90
18103;DHT22;9178;51.120;6.192;2023-12-20T15:57:58;7.20;99.90
18103;DHT22;9178;51.120;6.192;2023-12-20T16:00:28;7.20;99.90
18103;DHT22;9178;51.120;6.192;2023-12-20T16:02:59;7.20;99.90
18103;DHT22;9178;51.120;6.192;2023-12-20T16:05:28;7.20;99.90
18103;DHT22;9178;51.120;6.192;2023-12-20T16:07:55;7.30;99.90
18103;DHT22;9178;51.120;6.192;2023-12-20T16:10:22;7.30;99.90